Wilmot, South Dakota
Current Conditions -  °F | °C
As of 9:34 PM on Wednesday 22 Oct 2014 (Local Time) from KVVV Reporting Station
Overcast Overcast  
Wind Chill: 55°   Ceiling: 1500
Heat Index: 55°   Visibility: 10mi
Dew Point: 52°   Wind: 5mph
Humidity: 88%   Direction: 270°W
Pressure: 29.95"   Gusts: NA
Location:  45.41°N, 96.86°W
Report Text: KVVV 230234Z AUTO 27004KT 10SM BKN015 OVC050 13/11 A2995 RMK AO2
Loading
Personal Weather Stations






























Interactive Weather Map
Tropical Storm Tracking
New forecast layout! Learn more

10-Day Weather Forecast

Advertisements
Track Severe Weather on mobile